sensor_id;sensor_type;location;lat;lon;timestamp;P1;durP1;ratioP1;P2;durP2;ratioP2
13204;SDS011;6667;52.634;9.226;2022-11-20T07:54:28;13.30;;;7.73;;
13204;SDS011;6667;52.634;9.226;2022-11-20T07:56:54;14.37;;;8.47;;
13204;SDS011;6667;52.634;9.226;2022-11-20T07:59:21;14.37;;;8.27;;
13204;SDS011;6667;52.634;9.226;2022-11-20T08:01:48;11.80;;;7.50;;
13204;SDS011;6667;52.634;9.226;2022-11-20T08:04:15;11.73;;;7.30;;
13204;SDS011;6667;52.634;9.226;2022-11-20T08:06:42;9.53;;;6.33;;
13204;SDS011;6667;52.634;9.226;2022-11-20T08:09:08;11.40;;;7.50;;
13204;SDS011;6667;52.634;9.226;2022-11-20T08:11:37;12.80;;;7.83;;
13204;SDS011;6667;52.634;9.226;2022-11-20T08:14:21;9.07;;;6.30;;
13204;SDS011;6667;52.634;9.226;2022-11-20T08:16:49;14.13;;;7.80;;
13204;SDS011;6667;52.634;9.226;2022-11-20T08:19:17;11.90;;;7.50;;
13204;SDS011;6667;52.634;9.226;2022-11-20T08:21:44;13.37;;;7.87;;
13204;SDS011;6667;52.634;9.226;2022-11-20T08:24:11;9.80;;;7.77;;
13204;SDS011;6667;52.634;9.226;2022-11-20T08:26:40;12.40;;;7.57;;
13204;SDS011;6667;52.634;9.226;2022-11-20T08:29:07;11.77;;;8.17;;
13204;SDS011;6667;52.634;9.226;2022-11-20T08:31:34;10.53;;;7.40;;
13204;SDS011;6667;52.634;9.226;2022-11-20T08:34:01;10.27;;;7.33;;
13204;SDS011;6667;52.634;9.226;2022-11-20T08:36:28;12.83;;;8.60;;
13204;SDS011;6667;52.634;9.226;2022-11-20T08:38:55;11.60;;;8.13;;
13204;SDS011;6667;52.634;9.226;2022-11-20T08:41:22;13.47;;;8.43;;
13204;SDS011;6667;52.634;9.226;2022-11-20T08:43:53;11.57;;;8.47;;
13204;SDS011;6667;52.634;9.226;2022-11-20T08:46:22;15.30;;;8.80;;
13204;SDS011;6667;52.634;9.226;2022-11-20T08:48:49;10.77;;;8.60;;
13204;SDS011;6667;52.634;9.226;2022-11-20T08:51:16;12.43;;;8.07;;
13204;SDS011;6667;52.634;9.226;2022-11-20T08:53:43;14.37;;;9.20;;
13204;SDS011;6667;52.634;9.226;2022-11-20T08:56:10;11.80;;;8.67;;
13204;SDS011;6667;52.634;9.226;2022-11-20T08:58:37;12.07;;;8.53;;
13204;SDS011;6667;52.634;9.226;2022-11-20T09:01:05;13.27;;;9.17;;
13204;SDS011;6667;52.634;9.226;2022-11-20T09:03:32;13.13;;;9.47;;
13204;SDS011;6667;52.634;9.226;2022-11-20T09:05:59;13.33;;;9.13;;
13204;SDS011;6667;52.634;9.226;2022-11-20T09:08:28;14.73;;;9.50;;
13204;SDS011;6667;52.634;9.226;2022-11-20T09:10:55;13.07;;;9.27;;
13204;SDS011;6667;52.634;9.226;2022-11-20T09:13:23;16.30;;;9.77;;
13204;SDS011;6667;52.634;9.226;2022-11-20T09:15:54;13.90;;;10.03;;
13204;SDS011;6667;52.634;9.226;2022-11-20T09:18:23;13.73;;;8.93;;
13204;SDS011;6667;52.634;9.226;2022-11-20T09:20:50;12.17;;;8.57;;
13204;SDS011;6667;52.634;9.226;2022-11-20T09:23:17;15.13;;;9.63;;
13204;SDS011;6667;52.634;9.226;2022-11-20T09:25:44;14.73;;;9.40;;
13204;SDS011;6667;52.634;9.226;2022-11-20T09:28:11;13.10;;;8.07;;
13204;SDS011;6667;52.634;9.226;2022-11-20T09:30:38;14.77;;;9.20;;
13204;SDS011;6667;52.634;9.226;2022-11-20T09:33:05;13.27;;;8.97;;
13204;SDS011;6667;52.634;9.226;2022-11-20T09:35:33;16.80;;;9.07;;
13204;SDS011;6667;52.634;9.226;2022-11-20T09:38:04;13.40;;;8.27;;
13204;SDS011;6667;52.634;9.226;2022-11-20T09:40:32;10.70;;;8.33;;
13204;SDS011;6667;52.634;9.226;2022-11-20T09:43:01;14.47;;;9.00;;
13204;SDS011;6667;52.634;9.226;2022-11-20T09:45:44;12.07;;;7.83;;
13204;SDS011;6667;52.634;9.226;2022-11-20T09:48:31;11.37;;;7.67;;
13204;SDS011;6667;52.634;9.226;2022-11-20T09:51:16;12.33;;;8.83;;
13204;SDS011;6667;52.634;9.226;2022-11-20T09:53:53;10.53;;;8.47;;
13204;SDS011;6667;52.634;9.226;2022-11-20T09:56:33;11.33;;;7.80;;
13204;SDS011;6667;52.634;9.226;2022-11-20T09:59:04;14.73;;;9.03;;
13204;SDS011;6667;52.634;9.226;2022-11-20T10:01:34;12.20;;;8.27;;
13204;SDS011;6667;52.634;9.226;2022-11-20T10:04:06;13.73;;;9.00;;
13204;SDS011;6667;52.634;9.226;2022-11-20T10:06:41;15.53;;;8.43;;
13204;SDS011;6667;52.634;9.226;2022-11-20T10:09:16;11.97;;;8.33;;
13204;SDS011;6667;52.634;9.226;2022-11-20T10:11:53;11.00;;;8.40;;
13204;SDS011;6667;52.634;9.226;2022-11-20T10:14:32;13.87;;;8.70;;
13204;SDS011;6667;52.634;9.226;2022-11-20T10:17:08;14.50;;;8.87;;
13204;SDS011;6667;52.634;9.226;2022-11-20T10:19:54;12.90;;;8.47;;
13204;SDS011;6667;52.634;9.226;2022-11-20T10:22:34;12.27;;;8.53;;
13204;SDS011;6667;52.634;9.226;2022-11-20T10:25:12;12.20;;;8.57;;
13204;SDS011;6667;52.634;9.226;2022-11-20T10:27:45;12.43;;;8.63;;
13204;SDS011;6667;52.634;9.226;2022-11-20T10:30:33;13.07;;;9.07;;
13204;SDS011;6667;52.634;9.226;2022-11-20T10:33:04;15.10;;;8.73;;
13204;SDS011;6667;52.634;9.226;2022-11-20T10:35:39;11.17;;;7.77;;
13204;SDS011;6667;52.634;9.226;2022-11-20T10:38:12;17.70;;;8.93;;
13204;SDS011;6667;52.634;9.226;2022-11-20T10:40:46;12.17;;;8.60;;
13204;SDS011;6667;52.634;9.226;2022-11-20T10:43:18;13.03;;;8.63;;
13204;SDS011;6667;52.634;9.226;2022-11-20T10:45:51;13.77;;;8.60;;
13204;SDS011;6667;52.634;9.226;2022-11-20T10:48:27;13.50;;;8.70;;
13204;SDS011;6667;52.634;9.226;2022-11-20T10:50:59;11.90;;;8.53;;
13204;SDS011;6667;52.634;9.226;2022-11-20T10:53:50;14.20;;;8.90;;
13204;SDS011;6667;52.634;9.226;2022-11-20T10:56:33;13.37;;;8.40;;
13204;SDS011;6667;52.634;9.226;2022-11-20T10:59:23;11.17;;;8.60;;
13204;SDS011;6667;52.634;9.226;2022-11-20T11:02:17;11.90;;;8.60;;
13204;SDS011;6667;52.634;9.226;2022-11-20T11:04:46;11.80;;;8.60;;
13204;SDS011;6667;52.634;9.226;2022-11-20T11:07:15;15.00;;;9.53;;
13204;SDS011;6667;52.634;9.226;2022-11-20T11:09:49;12.90;;;9.50;;
13204;SDS011;6667;52.634;9.226;2022-11-20T11:12:18;14.30;;;9.47;;
13204;SDS011;6667;52.634;9.226;2022-11-20T11:14:47;13.67;;;9.30;;
13204;SDS011;6667;52.634;9.226;2022-11-20T11:17:23;11.27;;;8.00;;
13204;SDS011;6667;52.634;9.226;2022-11-20T11:20:04;10.73;;;8.63;;
13204;SDS011;6667;52.634;9.226;2022-11-20T11:22:42;10.63;;;6.93;;
13204;SDS011;6667;52.634;9.226;2022-11-20T11:25:20;10.47;;;7.80;;
13204;SDS011;6667;52.634;9.226;2022-11-20T11:27:49;13.87;;;8.43;;
13204;SDS011;6667;52.634;9.226;2022-11-20T11:30:18;14.50;;;8.40;;
13204;SDS011;6667;52.634;9.226;2022-11-20T11:32:46;12.27;;;8.27;;
13204;SDS011;6667;52.634;9.226;2022-11-20T11:35:20;10.87;;;8.70;;
13204;SDS011;6667;52.634;9.226;2022-11-20T11:37:49;13.23;;;9.40;;
13204;SDS011;6667;52.634;9.226;2022-11-20T11:40:20;12.97;;;8.80;;
13204;SDS011;6667;52.634;9.226;2022-11-20T11:42:51;15.00;;;9.20;;
13204;SDS011;6667;52.634;9.226;2022-11-20T11:45:22;14.67;;;9.87;;
13204;SDS011;6667;52.634;9.226;2022-11-20T11:47:49;17.40;;;10.67;;
13204;SDS011;6667;52.634;9.226;2022-11-20T11:50:19;12.90;;;9.27;;
13204;SDS011;6667;52.634;9.226;2022-11-20T11:52:49;16.10;;;10.77;;
13204;SDS011;6667;52.634;9.226;2022-11-20T11:55:30;13.00;;;8.93;;
13204;SDS011;6667;52.634;9.226;2022-11-20T11:58:11;12.73;;;9.07;;
13204;SDS011;6667;52.634;9.226;2022-11-20T12:00:47;13.73;;;10.57;;
13204;SDS011;6667;52.634;9.226;2022-11-20T12:03:21;17.23;;;10.17;;
13204;SDS011;6667;52.634;9.226;2022-11-20T12:05:55;12.83;;;9.33;;
13204;SDS011;6667;52.634;9.226;2022-11-20T12:08:26;19.00;;;10.90;;
13204;SDS011;6667;52.634;9.226;2022-11-20T12:11:00;13.83;;;10.00;;
13204;SDS011;6667;52.634;9.226;2022-11-20T12:13:35;18.33;;;11.13;;
13204;SDS011;6667;52.634;9.226;2022-11-20T12:16:11;15.63;;;9.63;;
13204;SDS011;6667;52.634;9.226;2022-11-20T12:18:39;11.97;;;8.93;;
13204;SDS011;6667;52.634;9.226;2022-11-20T12:21:11;12.47;;;9.07;;
13204;SDS011;6667;52.634;9.226;2022-11-20T12:23:47;14.80;;;9.83;;
13204;SDS011;6667;52.634;9.226;2022-11-20T12:26:27;13.37;;;9.40;;
13204;SDS011;6667;52.634;9.226;2022-11-20T12:29:06;17.10;;;9.27;;
13204;SDS011;6667;52.634;9.226;2022-11-20T12:34:47;16.53;;;11.80;;
13204;SDS011;6667;52.634;9.226;2022-11-20T12:37:32;14.23;;;9.47;;
13204;SDS011;6667;52.634;9.226;2022-11-20T12:40:08;14.60;;;9.83;;
13204;SDS011;6667;52.634;9.226;2022-11-20T12:42:52;11.67;;;8.47;;
13204;SDS011;6667;52.634;9.226;2022-11-20T12:46:01;18.37;;;12.23;;
13204;SDS011;6667;52.634;9.226;2022-11-20T12:48:48;12.33;;;9.50;;
13204;SDS011;6667;52.634;9.226;2022-11-20T12:51:24;14.03;;;9.80;;
13204;SDS011;6667;52.634;9.226;2022-11-20T12:54:03;13.87;;;9.70;;
13204;SDS011;6667;52.634;9.226;2022-11-20T12:56:53;13.53;;;9.30;;
13204;SDS011;6667;52.634;9.226;2022-11-20T12:59:30;14.90;;;9.50;;
13204;SDS011;6667;52.634;9.226;2022-11-20T13:02:11;15.33;;;10.87;;
13204;SDS011;6667;52.634;9.226;2022-11-20T13:04:52;17.47;;;9.83;;
13204;SDS011;6667;52.634;9.226;2022-11-20T13:07:30;12.97;;;9.77;;
13204;SDS011;6667;52.634;9.226;2022-11-20T13:09:59;12.43;;;8.83;;
13204;SDS011;6667;52.634;9.226;2022-11-20T13:12:28;12.80;;;9.00;;
13204;SDS011;6667;52.634;9.226;2022-11-20T13:15:02;21.20;;;13.97;;
13204;SDS011;6667;52.634;9.226;2022-11-20T13:17:37;16.63;;;11.23;;
13204;SDS011;6667;52.634;9.226;2022-11-20T13:20:12;17.17;;;11.80;;
13204;SDS011;6667;52.634;9.226;2022-11-20T13:22:44;14.60;;;10.93;;
13204;SDS011;6667;52.634;9.226;2022-11-20T13:25:22;17.37;;;11.80;;
13204;SDS011;6667;52.634;9.226;2022-11-20T13:27:49;17.77;;;10.90;;
13204;SDS011;6667;52.634;9.226;2022-11-20T13:30:18;15.27;;;10.10;;
13204;SDS011;6667;52.634;9.226;2022-11-20T13:32:50;13.37;;;10.00;;
13204;SDS011;6667;52.634;9.226;2022-11-20T13:35:29;14.70;;;9.60;;
13204;SDS011;6667;52.634;9.226;2022-11-20T13:38:02;10.60;;;8.13;;
13204;SDS011;6667;52.634;9.226;2022-11-20T13:40:30;12.87;;;8.53;;
13204;SDS011;6667;52.634;9.226;2022-11-20T13:43:02;10.27;;;8.30;;
13204;SDS011;6667;52.634;9.226;2022-11-20T13:45:35;11.70;;;8.43;;
13204;SDS011;6667;52.634;9.226;2022-11-20T13:48:03;11.23;;;7.50;;
13204;SDS011;6667;52.634;9.226;2022-11-20T13:50:39;10.83;;;8.10;;
13204;SDS011;6667;52.634;9.226;2022-11-20T13:53:12;12.53;;;7.37;;
13204;SDS011;6667;52.634;9.226;2022-11-20T13:55:50;9.37;;;6.77;;
13204;SDS011;6667;52.634;9.226;2022-11-20T13:58:27;13.07;;;8.00;;
13204;SDS011;6667;52.634;9.226;2022-11-20T14:01:09;11.90;;;7.90;;
13204;SDS011;6667;52.634;9.226;2022-11-20T14:03:40;15.00;;;8.57;;
13204;SDS011;6667;52.634;9.226;2022-11-20T14:06:11;13.03;;;8.87;;
13204;SDS011;6667;52.634;9.226;2022-11-20T14:08:40;16.23;;;11.57;;
13204;SDS011;6667;52.634;9.226;2022-11-20T14:11:14;16.23;;;10.57;;
13204;SDS011;6667;52.634;9.226;2022-11-20T14:13:52;14.60;;;10.03;;
13204;SDS011;6667;52.634;9.226;2022-11-20T14:16:26;19.43;;;11.60;;
13204;SDS011;6667;52.634;9.226;2022-11-20T14:18:54;16.23;;;10.37;;
13204;SDS011;6667;52.634;9.226;2022-11-20T14:21:22;13.77;;;10.10;;
13204;SDS011;6667;52.634;9.226;2022-11-20T14:24:02;14.80;;;10.10;;
13204;SDS011;6667;52.634;9.226;2022-11-20T14:26:30;14.17;;;10.03;;
13204;SDS011;6667;52.634;9.226;2022-11-20T14:28:57;12.47;;;9.67;;
13204;SDS011;6667;52.634;9.226;2022-11-20T14:31:26;16.53;;;9.63;;
13204;SDS011;6667;52.634;9.226;2022-11-20T14:33:54;17.47;;;10.13;;
13204;SDS011;6667;52.634;9.226;2022-11-20T14:36:23;17.70;;;11.67;;
13204;SDS011;6667;52.634;9.226;2022-11-20T14:38:51;16.93;;;10.97;;
13204;SDS011;6667;52.634;9.226;2022-11-20T14:41:19;15.37;;;10.77;;
13204;SDS011;6667;52.634;9.226;2022-11-20T14:43:55;14.27;;;10.73;;
13204;SDS011;6667;52.634;9.226;2022-11-20T14:46:23;15.73;;;11.43;;
13204;SDS011;6667;52.634;9.226;2022-11-20T14:48:53;16.70;;;11.33;;
13204;SDS011;6667;52.634;9.226;2022-11-20T14:51:31;13.80;;;10.37;;
13204;SDS011;6667;52.634;9.226;2022-11-20T14:56:53;14.63;;;9.47;;
13204;SDS011;6667;52.634;9.226;2022-11-20T14:59:22;13.90;;;9.23;;
13204;SDS011;6667;52.634;9.226;2022-11-20T15:01:54;12.23;;;9.07;;
13204;SDS011;6667;52.634;9.226;2022-11-20T15:04:24;15.77;;;10.00;;
13204;SDS011;6667;52.634;9.226;2022-11-20T15:06:52;14.17;;;9.93;;
13204;SDS011;6667;52.634;9.226;2022-11-20T15:09:21;19.93;;;12.80;;
13204;SDS011;6667;52.634;9.226;2022-11-20T15:11:52;14.83;;;9.87;;
13204;SDS011;6667;52.634;9.226;2022-11-20T15:14:21;13.10;;;9.50;;
13204;SDS011;6667;52.634;9.226;2022-11-20T15:16:49;12.87;;;8.73;;
13204;SDS011;6667;52.634;9.226;2022-11-20T15:19:17;11.63;;;8.93;;
13204;SDS011;6667;52.634;9.226;2022-11-20T15:21:47;14.13;;;9.23;;
13204;SDS011;6667;52.634;9.226;2022-11-20T15:24:14;12.50;;;8.87;;
13204;SDS011;6667;52.634;9.226;2022-11-20T15:26:41;11.93;;;8.10;;
13204;SDS011;6667;52.634;9.226;2022-11-20T15:29:08;29.57;;;15.00;;
13204;SDS011;6667;52.634;9.226;2022-11-20T15:31:37;29.60;;;15.97;;
13204;SDS011;6667;52.634;9.226;2022-11-20T15:34:07;36.80;;;18.50;;
13204;SDS011;6667;52.634;9.226;2022-11-20T15:36:36;14.90;;;10.20;;
13204;SDS011;6667;52.634;9.226;2022-11-20T15:39:04;16.83;;;9.77;;
13204;SDS011;6667;52.634;9.226;2022-11-20T15:41:32;13.77;;;8.97;;
13204;SDS011;6667;52.634;9.226;2022-11-20T15:43:59;14.97;;;9.20;;
13204;SDS011;6667;52.634;9.226;2022-11-20T15:46:26;13.07;;;9.40;;
13204;SDS011;6667;52.634;9.226;2022-11-20T15:48:55;13.50;;;9.67;;
13204;SDS011;6667;52.634;9.226;2022-11-20T15:51:24;16.80;;;9.90;;
13204;SDS011;6667;52.634;9.226;2022-11-20T15:53:54;13.80;;;9.80;;
13204;SDS011;6667;52.634;9.226;2022-11-20T15:56:23;15.50;;;10.20;;
13204;SDS011;6667;52.634;9.226;2022-11-20T15:58:50;16.27;;;11.30;;
13204;SDS011;6667;52.634;9.226;2022-11-20T16:01:17;15.03;;;9.63;;
13204;SDS011;6667;52.634;9.226;2022-11-20T16:03:46;14.63;;;9.87;;
13204;SDS011;6667;52.634;9.226;2022-11-20T16:06:13;14.93;;;9.50;;
13204;SDS011;6667;52.634;9.226;2022-11-20T16:08:41;14.10;;;10.33;;
13204;SDS011;6667;52.634;9.226;2022-11-20T16:11:09;12.80;;;9.13;;
13204;SDS011;6667;52.634;9.226;2022-11-20T16:13:39;17.87;;;10.97;;
13204;SDS011;6667;52.634;9.226;2022-11-20T16:16:24;15.07;;;10.27;;
13204;SDS011;6667;52.634;9.226;2022-11-20T16:18:55;16.20;;;11.07;;
13204;SDS011;6667;52.634;9.226;2022-11-20T16:21:22;15.87;;;11.30;;
13204;SDS011;6667;52.634;9.226;2022-11-20T16:23:56;13.97;;;10.03;;
13204;SDS011;6667;52.634;9.226;2022-11-20T16:26:23;19.20;;;10.63;;
13204;SDS011;6667;52.634;9.226;2022-11-20T16:28:52;15.47;;;10.27;;
13204;SDS011;6667;52.634;9.226;2022-11-20T16:31:19;15.07;;;10.30;;
13204;SDS011;6667;52.634;9.226;2022-11-20T16:33:48;14.80;;;10.20;;
13204;SDS011;6667;52.634;9.226;2022-11-20T16:36:16;17.00;;;10.93;;
13204;SDS011;6667;52.634;9.226;2022-11-20T16:38:43;15.70;;;10.27;;
13204;SDS011;6667;52.634;9.226;2022-11-20T16:41:10;15.37;;;11.37;;
13204;SDS011;6667;52.634;9.226;2022-11-20T16:43:42;16.93;;;11.23;;
13204;SDS011;6667;52.634;9.226;2022-11-20T16:46:12;16.33;;;11.37;;
13204;SDS011;6667;52.634;9.226;2022-11-20T16:48:39;32.80;;;24.47;;
13204;SDS011;6667;52.634;9.226;2022-11-20T16:51:07;19.53;;;13.50;;
13204;SDS011;6667;52.634;9.226;2022-11-20T16:53:35;18.27;;;12.13;;
13204;SDS011;6667;52.634;9.226;2022-11-20T16:56:09;18.73;;;11.90;;
13204;SDS011;6667;52.634;9.226;2022-11-20T16:58:37;17.80;;;12.63;;
13204;SDS011;6667;52.634;9.226;2022-11-20T17:01:05;19.33;;;13.00;;
13204;SDS011;6667;52.634;9.226;2022-11-20T17:03:35;19.50;;;12.43;;
13204;SDS011;6667;52.634;9.226;2022-11-20T17:06:09;21.27;;;13.83;;
13204;SDS011;6667;52.634;9.226;2022-11-20T17:08:37;19.77;;;13.17;;
13204;SDS011;6667;52.634;9.226;2022-11-20T17:11:04;20.03;;;13.97;;
13204;SDS011;6667;52.634;9.226;2022-11-20T17:13:32;18.93;;;13.57;;
13204;SDS011;6667;52.634;9.226;2022-11-20T17:16:00;21.90;;;13.83;;
13204;SDS011;6667;52.634;9.226;2022-11-20T17:18:28;19.37;;;13.13;;
13204;SDS011;6667;52.634;9.226;2022-11-20T17:20:56;21.07;;;13.97;;
13204;SDS011;6667;52.634;9.226;2022-11-20T17:23:26;20.77;;;13.93;;
13204;SDS011;6667;52.634;9.226;2022-11-20T17:25:59;28.50;;;15.83;;
13204;SDS011;6667;52.634;9.226;2022-11-20T17:28:27;20.80;;;13.53;;
13204;SDS011;6667;52.634;9.226;2022-11-20T17:30:57;18.97;;;12.67;;
13204;SDS011;6667;52.634;9.226;2022-11-20T17:33:25;17.73;;;12.27;;
13204;SDS011;6667;52.634;9.226;2022-11-20T17:35:51;18.73;;;12.93;;
13204;SDS011;6667;52.634;9.226;2022-11-20T17:38:19;18.57;;;12.80;;
13204;SDS011;6667;52.634;9.226;2022-11-20T17:40:46;18.33;;;12.67;;
13204;SDS011;6667;52.634;9.226;2022-11-20T17:43:13;17.63;;;12.63;;
13204;SDS011;6667;52.634;9.226;2022-11-20T17:45:40;21.67;;;13.10;;
13204;SDS011;6667;52.634;9.226;2022-11-20T17:48:07;18.57;;;12.77;;
13204;SDS011;6667;52.634;9.226;2022-11-20T17:50:34;27.47;;;17.80;;
13204;SDS011;6667;52.634;9.226;2022-11-20T17:53:01;29.37;;;16.80;;
13204;SDS011;6667;52.634;9.226;2022-11-20T17:55:29;27.93;;;15.80;;
13204;SDS011;6667;52.634;9.226;2022-11-20T17:58:16;24.73;;;15.80;;
13204;SDS011;6667;52.634;9.226;2022-11-20T18:00:42;26.27;;;13.93;;
13204;SDS011;6667;52.634;9.226;2022-11-20T18:03:09;18.83;;;12.33;;
13204;SDS011;6667;52.634;9.226;2022-11-20T18:05:36;16.13;;;11.93;;
13204;SDS011;6667;52.634;9.226;2022-11-20T18:08:03;20.23;;;13.37;;
13204;SDS011;6667;52.634;9.226;2022-11-20T18:10:31;19.00;;;11.00;;
13204;SDS011;6667;52.634;9.226;2022-11-20T18:12:59;15.83;;;10.20;;
13204;SDS011;6667;52.634;9.226;2022-11-20T18:15:26;16.63;;;11.37;;
13204;SDS011;6667;52.634;9.226;2022-11-20T18:17:53;14.20;;;10.47;;
13204;SDS011;6667;52.634;9.226;2022-11-20T18:20:19;16.47;;;12.60;;
13204;SDS011;6667;52.634;9.226;2022-11-20T18:22:46;16.30;;;11.33;;
13204;SDS011;6667;52.634;9.226;2022-11-20T18:25:13;15.00;;;10.93;;
13204;SDS011;6667;52.634;9.226;2022-11-20T18:27:41;17.20;;;12.00;;
13204;SDS011;6667;52.634;9.226;2022-11-20T18:30:08;16.67;;;11.10;;
13204;SDS011;6667;52.634;9.226;2022-11-20T18:32:36;22.40;;;12.03;;
13204;SDS011;6667;52.634;9.226;2022-11-20T18:35:03;16.27;;;11.70;;
13204;SDS011;6667;52.634;9.226;2022-11-20T18:37:31;18.27;;;12.20;;
13204;SDS011;6667;52.634;9.226;2022-11-20T18:39:57;38.37;;;21.23;;
13204;SDS011;6667;52.634;9.226;2022-11-20T18:42:24;20.93;;;13.97;;
13204;SDS011;6667;52.634;9.226;2022-11-20T18:45:10;20.07;;;13.73;;
13204;SDS011;6667;52.634;9.226;2022-11-20T18:47:37;20.27;;;11.87;;
13204;SDS011;6667;52.634;9.226;2022-11-20T18:50:04;24.50;;;14.30;;
13204;SDS011;6667;52.634;9.226;2022-11-20T18:52:33;18.97;;;13.23;;
13204;SDS011;6667;52.634;9.226;2022-11-20T18:55:04;22.37;;;12.77;;
13204;SDS011;6667;52.634;9.226;2022-11-20T18:57:31;19.50;;;12.73;;
13204;SDS011;6667;52.634;9.226;2022-11-20T18:59:58;21.27;;;13.43;;
13204;SDS011;6667;52.634;9.226;2022-11-20T19:02:26;17.77;;;11.63;;
13204;SDS011;6667;52.634;9.226;2022-11-20T19:04:54;15.77;;;10.20;;
13204;SDS011;6667;52.634;9.226;2022-11-20T19:07:21;14.63;;;10.17;;
13204;SDS011;6667;52.634;9.226;2022-11-20T19:09:48;16.53;;;10.23;;
13204;SDS011;6667;52.634;9.226;2022-11-20T19:12:17;16.37;;;10.47;;
13204;SDS011;6667;52.634;9.226;2022-11-20T19:14:45;18.50;;;12.30;;
13204;SDS011;6667;52.634;9.226;2022-11-20T19:17:12;15.83;;;10.57;;
13204;SDS011;6667;52.634;9.226;2022-11-20T19:19:40;13.93;;;9.90;;
13204;SDS011;6667;52.634;9.226;2022-11-20T19:22:07;14.40;;;10.03;;
13204;SDS011;6667;52.634;9.226;2022-11-20T19:24:34;13.83;;;10.17;;
13204;SDS011;6667;52.634;9.226;2022-11-20T19:27:00;19.57;;;12.73;;
13204;SDS011;6667;52.634;9.226;2022-11-20T19:29:27;16.43;;;10.87;;
13204;SDS011;6667;52.634;9.226;2022-11-20T19:31:54;16.30;;;11.67;;
13204;SDS011;6667;52.634;9.226;2022-11-20T19:34:21;29.53;;;12.57;;
13204;SDS011;6667;52.634;9.226;2022-11-20T19:36:49;16.47;;;11.67;;
13204;SDS011;6667;52.634;9.226;2022-11-20T19:39:16;19.73;;;11.33;;
13204;SDS011;6667;52.634;9.226;2022-11-20T19:41:43;14.77;;;9.80;;
13204;SDS011;6667;52.634;9.226;2022-11-20T19:44:10;16.90;;;10.33;;
13204;SDS011;6667;52.634;9.226;2022-11-20T19:46:39;15.23;;;10.43;;
13204;SDS011;6667;52.634;9.226;2022-11-20T19:49:06;17.17;;;11.37;;
13204;SDS011;6667;52.634;9.226;2022-11-20T19:51:35;18.10;;;10.63;;
13204;SDS011;6667;52.634;9.226;2022-11-20T19:54:04;19.43;;;11.53;;
13204;SDS011;6667;52.634;9.226;2022-11-20T19:56:32;16.70;;;11.07;;
13204;SDS011;6667;52.634;9.226;2022-11-20T19:58:59;16.63;;;10.90;;
13204;SDS011;6667;52.634;9.226;2022-11-20T20:01:27;17.20;;;10.63;;
13204;SDS011;6667;52.634;9.226;2022-11-20T20:03:55;16.67;;;11.17;;
13204;SDS011;6667;52.634;9.226;2022-11-20T20:06:25;15.83;;;11.23;;
13204;SDS011;6667;52.634;9.226;2022-11-20T20:08:53;25.07;;;15.23;;
13204;SDS011;6667;52.634;9.226;2022-11-20T20:11:22;16.77;;;11.50;;
13204;SDS011;6667;52.634;9.226;2022-11-20T20:13:49;15.73;;;11.23;;
13204;SDS011;6667;52.634;9.226;2022-11-20T20:16:17;20.97;;;12.33;;
13204;SDS011;6667;52.634;9.226;2022-11-20T20:18:45;19.80;;;12.60;;
13204;SDS011;6667;52.634;9.226;2022-11-20T20:21:13;16.73;;;11.33;;
13204;SDS011;6667;52.634;9.226;2022-11-20T20:23:42;20.77;;;11.27;;
13204;SDS011;6667;52.634;9.226;2022-11-20T20:26:10;20.00;;;12.30;;
13204;SDS011;6667;52.634;9.226;2022-11-20T20:28:38;16.60;;;11.27;;
13204;SDS011;6667;52.634;9.226;2022-11-20T20:31:06;14.77;;;10.40;;
13204;SDS011;6667;52.634;9.226;2022-11-20T20:33:34;17.63;;;10.90;;
13204;SDS011;6667;52.634;9.226;2022-11-20T20:36:01;15.23;;;10.17;;
13204;SDS011;6667;52.634;9.226;2022-11-20T20:38:28;17.60;;;11.37;;
13204;SDS011;6667;52.634;9.226;2022-11-20T20:40:55;16.13;;;10.57;;
13204;SDS011;6667;52.634;9.226;2022-11-20T20:43:22;22.80;;;12.77;;
13204;SDS011;6667;52.634;9.226;2022-11-20T20:45:50;18.53;;;10.37;;
13204;SDS011;6667;52.634;9.226;2022-11-20T20:48:18;18.53;;;11.07;;
13204;SDS011;6667;52.634;9.226;2022-11-20T20:50:51;17.03;;;11.33;;
13204;SDS011;6667;52.634;9.226;2022-11-20T20:53:18;16.00;;;10.20;;
13204;SDS011;6667;52.634;9.226;2022-11-20T20:55:51;17.73;;;11.27;;
13204;SDS011;6667;52.634;9.226;2022-11-20T20:58:19;15.63;;;11.37;;
13204;SDS011;6667;52.634;9.226;2022-11-20T21:00:45;14.03;;;9.80;;
13204;SDS011;6667;52.634;9.226;2022-11-20T21:03:13;16.67;;;11.03;;
13204;SDS011;6667;52.634;9.226;2022-11-20T21:05:41;19.40;;;11.17;;
13204;SDS011;6667;52.634;9.226;2022-11-20T21:08:08;19.83;;;10.83;;
13204;SDS011;6667;52.634;9.226;2022-11-20T21:10:49;19.00;;;11.80;;
13204;SDS011;6667;52.634;9.226;2022-11-20T21:13:16;16.13;;;11.23;;
13204;SDS011;6667;52.634;9.226;2022-11-20T21:15:44;15.83;;;10.10;;
13204;SDS011;6667;52.634;9.226;2022-11-20T21:18:13;18.20;;;10.80;;
13204;SDS011;6667;52.634;9.226;2022-11-20T21:20:41;16.47;;;10.47;;
13204;SDS011;6667;52.634;9.226;2022-11-20T21:23:25;16.93;;;11.27;;
13204;SDS011;6667;52.634;9.226;2022-11-20T21:25:52;15.03;;;10.33;;
13204;SDS011;6667;52.634;9.226;2022-11-20T21:28:19;16.47;;;11.30;;
13204;SDS011;6667;52.634;9.226;2022-11-20T21:30:46;16.73;;;10.63;;
13204;SDS011;6667;52.634;9.226;2022-11-20T21:33:14;21.03;;;11.67;;
13204;SDS011;6667;52.634;9.226;2022-11-20T21:35:41;16.57;;;10.80;;
13204;SDS011;6667;52.634;9.226;2022-11-20T21:38:07;19.80;;;12.03;;
13204;SDS011;6667;52.634;9.226;2022-11-20T21:40:34;17.87;;;11.17;;
13204;SDS011;6667;52.634;9.226;2022-11-20T21:43:01;17.33;;;10.93;;
13204;SDS011;6667;52.634;9.226;2022-11-20T21:45:27;16.63;;;11.43;;
13204;SDS011;6667;52.634;9.226;2022-11-20T21:47:54;17.93;;;11.90;;
13204;SDS011;6667;52.634;9.226;2022-11-20T21:50:22;16.57;;;10.90;;
13204;SDS011;6667;52.634;9.226;2022-11-20T21:52:49;17.10;;;10.30;;
13204;SDS011;6667;52.634;9.226;2022-11-20T21:55:16;18.23;;;11.03;;
13204;SDS011;6667;52.634;9.226;2022-11-20T21:57:42;18.53;;;12.00;;
13204;SDS011;6667;52.634;9.226;2022-11-20T22:00:10;16.87;;;10.53;;
13204;SDS011;6667;52.634;9.226;2022-11-20T22:02:37;18.07;;;11.40;;
13204;SDS011;6667;52.634;9.226;2022-11-20T22:05:04;16.60;;;10.80;;
13204;SDS011;6667;52.634;9.226;2022-11-20T22:07:33;19.07;;;11.20;;
13204;SDS011;6667;52.634;9.226;2022-11-20T22:10:00;16.23;;;10.40;;
13204;SDS011;6667;52.634;9.226;2022-11-20T22:12:27;15.23;;;10.40;;
13204;SDS011;6667;52.634;9.226;2022-11-20T22:14:53;17.47;;;10.93;;
13204;SDS011;6667;52.634;9.226;2022-11-20T22:17:19;19.43;;;10.27;;
13204;SDS011;6667;52.634;9.226;2022-11-20T22:20:07;16.23;;;11.20;;
13204;SDS011;6667;52.634;9.226;2022-11-20T22:22:36;15.00;;;10.13;;
13204;SDS011;6667;52.634;9.226;2022-11-20T22:25:04;16.77;;;10.97;;
13204;SDS011;6667;52.634;9.226;2022-11-20T22:27:32;16.73;;;10.30;;
